createdAt,value
2022-10-04T00:02:27.542Z,16.70
2022-10-04T00:10:36.604Z,16.60
2022-10-04T00:18:43.944Z,16.70
2022-10-04T00:27:22.978Z,16.70
2022-10-04T00:35:51.099Z,16.70
2022-10-04T00:44:00.986Z,16.70
2022-10-04T00:52:14.739Z,16.70
2022-10-04T01:00:23.823Z,16.60
2022-10-04T01:08:31.847Z,16.40
2022-10-04T01:16:41.436Z,16.30
2022-10-04T01:24:49.707Z,16.10
2022-10-04T01:32:55.086Z,16.00
2022-10-04T01:41:06.237Z,16.20
2022-10-04T01:49:19.253Z,16.20
2022-10-04T01:57:34.878Z,16.00
2022-10-04T02:05:44.451Z,16.20
2022-10-04T02:13:55.639Z,16.10
2022-10-04T02:22:03.582Z,16.10
2022-10-04T02:30:14.675Z,16.20
2022-10-04T02:38:25.392Z,16.20
2022-10-04T02:46:37.763Z,16.30
2022-10-04T02:54:48.048Z,16.40
2022-10-04T03:03:19.468Z,16.30
2022-10-04T03:11:28.199Z,16.40
2022-10-04T03:19:37.621Z,16.30
2022-10-04T03:27:43.257Z,16.20
2022-10-04T03:35:55.117Z,16.40
2022-10-04T03:44:04.893Z,16.50
2022-10-04T03:52:22.816Z,16.50
2022-10-04T04:00:28.393Z,16.60
2022-10-04T04:08:39.335Z,16.60
2022-10-04T04:16:44.732Z,16.50
2022-10-04T04:24:53.296Z,16.40
2022-10-04T04:33:00.575Z,16.40
2022-10-04T04:41:14.546Z,16.30
2022-10-04T04:49:23.864Z,16.40
2022-10-04T04:57:33.525Z,16.50
2022-10-04T05:05:39.505Z,16.70
2022-10-04T05:13:52.791Z,16.70
2022-10-04T05:22:01.780Z,16.70
2022-10-04T05:30:19.440Z,16.80
2022-10-04T05:38:36.015Z,16.80
2022-10-04T05:46:44.201Z,16.90
2022-10-04T05:54:52.123Z,16.90
2022-10-04T06:03:39.003Z,17.10
2022-10-04T06:12:02.291Z,17.10
2022-10-04T06:20:37.760Z,17.70
2022-10-04T06:28:48.239Z,18.30
2022-10-04T06:37:24.521Z,18.00
2022-10-04T06:45:52.768Z,19.00
2022-10-04T06:54:11.044Z,19.30
2022-10-04T07:02:20.864Z,19.80
2022-10-04T07:10:36.005Z,20.20
2022-10-04T07:18:59.249Z,19.90
2022-10-04T07:27:14.791Z,19.70
2022-10-04T07:35:34.006Z,19.90
2022-10-04T07:43:51.182Z,19.90
2022-10-04T07:52:10.662Z,20.10
2022-10-04T08:00:22.028Z,20.40
2022-10-04T08:08:43.876Z,20.50
2022-10-04T08:17:06.354Z,20.60
2022-10-04T08:25:23.960Z,20.80
2022-10-04T08:33:50.061Z,20.80
2022-10-04T08:42:25.064Z,21.30
2022-10-04T08:51:01.353Z,21.20
2022-10-04T08:59:26.129Z,21.80
2022-10-04T09:08:04.374Z,22.10
2022-10-04T09:16:19.568Z,22.40
2022-10-04T09:24:53.824Z,23.00
2022-10-04T09:33:34.629Z,22.50
2022-10-04T09:41:53.975Z,21.80
2022-10-04T09:50:24.368Z,22.20
2022-10-04T09:59:10.189Z,25.90
2022-10-04T10:07:38.119Z,32.50
2022-10-04T10:16:01.178Z,39.80
2022-10-04T10:24:30.357Z,36.40
2022-10-04T10:32:58.088Z,29.40
2022-10-04T10:41:35.891Z,33.80
2022-10-04T10:50:05.949Z,37.60
2022-10-04T10:58:44.374Z,32.80
2022-10-04T11:07:26.677Z,31.20
2022-10-04T11:15:51.756Z,35.10
2022-10-04T11:24:33.186Z,35.20
2022-10-04T11:33:28.438Z,30.80
2022-10-04T11:41:53.451Z,27.20
2022-10-04T11:50:20.598Z,24.50
2022-10-04T11:58:38.730Z,22.50
2022-10-04T12:07:00.899Z,21.40
2022-10-04T12:15:39.135Z,20.60
2022-10-04T12:24:16.342Z,20.70
2022-10-04T12:32:33.972Z,21.60
2022-10-04T12:40:46.475Z,22.10
2022-10-04T12:49:08.942Z,21.80
2022-10-04T12:57:39.940Z,22.60
2022-10-04T13:06:03.163Z,22.70
2022-10-04T13:14:37.337Z,22.50
2022-10-04T13:22:56.866Z,22.50
2022-10-04T13:31:08.725Z,22.60
2022-10-04T13:39:33.492Z,22.70
2022-10-04T13:47:50.927Z,22.90
2022-10-04T13:56:18.886Z,22.90
2022-10-04T14:04:45.547Z,22.60
2022-10-04T14:13:26.246Z,22.40
2022-10-04T14:22:01.659Z,21.80
2022-10-04T14:30:20.375Z,21.20
2022-10-04T14:38:52.663Z,20.60
2022-10-04T14:47:13.878Z,19.90
2022-10-04T14:55:35.713Z,19.80
2022-10-04T15:04:02.738Z,20.10
2022-10-04T15:13:08.822Z,20.10
2022-10-04T15:21:12.480Z,19.80
2022-10-04T15:29:27.286Z,19.60
2022-10-04T15:37:47.105Z,19.60
2022-10-04T15:46:12.870Z,19.50
2022-10-04T15:54:59.791Z,19.30
2022-10-04T16:03:21.703Z,19.10
2022-10-04T16:11:42.479Z,19.00
2022-10-04T16:20:06.228Z,19.00
2022-10-04T16:28:26.239Z,18.90
2022-10-04T16:36:44.407Z,18.70
2022-10-04T16:44:56.791Z,18.80
2022-10-04T16:53:22.852Z,18.70
2022-10-04T17:02:15.854Z,18.80
2022-10-04T17:10:34.354Z,18.70
2022-10-04T17:18:55.427Z,18.70
2022-10-04T17:27:17.649Z,18.60
2022-10-04T17:36:11.288Z,18.70
2022-10-04T17:44:40.150Z,18.80
2022-10-04T17:53:04.530Z,18.70
2022-10-04T18:01:15.421Z,18.80
2022-10-04T18:09:30.332Z,18.50
2022-10-04T18:17:40.901Z,18.50
2022-10-04T18:25:51.406Z,18.40
2022-10-04T18:33:56.739Z,18.30
2022-10-04T18:42:19.265Z,18.10
2022-10-04T18:50:36.729Z,18.00
2022-10-04T18:59:16.902Z,17.90
2022-10-04T19:07:32.253Z,17.90
2022-10-04T19:16:15.464Z,17.80
2022-10-04T19:24:44.007Z,17.90
2022-10-04T19:33:02.717Z,17.90
2022-10-04T19:41:17.095Z,17.70
2022-10-04T19:49:34.381Z,17.70
2022-10-04T19:57:46.320Z,17.70
2022-10-04T20:05:55.613Z,17.80
2022-10-04T20:14:37.818Z,17.70
2022-10-04T20:23:00.900Z,17.80
2022-10-04T20:31:07.435Z,17.80
2022-10-04T20:40:01.099Z,17.70
2022-10-04T20:48:15.695Z,17.40
2022-10-04T20:56:26.866Z,17.30
2022-10-04T21:04:42.314Z,17.00
2022-10-04T21:12:51.774Z,17.00
2022-10-04T21:21:06.950Z,16.80
2022-10-04T21:29:15.020Z,16.70
2022-10-04T21:37:21.404Z,16.70
2022-10-04T21:45:29.361Z,16.50
2022-10-04T21:53:34.635Z,16.30
2022-10-04T22:01:42.598Z,16.20
2022-10-04T22:09:47.916Z,16.10
2022-10-04T22:17:55.821Z,16.00
2022-10-04T22:26:01.114Z,16.00
2022-10-04T22:34:16.186Z,15.80
2022-10-04T22:42:22.049Z,15.80
2022-10-04T22:50:35.810Z,15.90
2022-10-04T22:58:40.807Z,15.70
2022-10-04T23:06:48.927Z,15.60
2022-10-04T23:14:54.313Z,15.30
2022-10-04T23:23:03.054Z,15.40
2022-10-04T23:31:14.679Z,15.30
2022-10-04T23:39:27.900Z,15.30
2022-10-04T23:47:37.957Z,15.30
2022-10-04T23:55:48.161Z,15.20
